River Junction, Iowa
Current Conditions -  °F | °C
As of 4:52 AM on Monday 20 Oct 2014 (Local Time) from KIOW Reporting Station
Clear Clear  
Wind Chill: 41°   Ceiling: Unl
Heat Index: 45°   Visibility: 10mi
Dew Point: 43°   Wind: 8mph
Humidity: 93%   Direction: 300°WNW
Pressure: 29.9"   Gusts: NA
Location:  41.5156°N, 91.4411°W
Report Text: KIOW 200952Z AUTO 30007KT 10SM CLR 07/06 A2990 RMK AO2 SLP127 T00720061 $
Loading
Personal Weather Stations






























Interactive Weather Map
Tropical Storm Tracking
New forecast layout! Learn more

10-Day Weather Forecast

Advertisements
Track Severe Weather on mobile